Time;durP1;ratioP1;P1;durP2;ratioP2;P2;SDS_P1;SDS_P2;PMS_P1;PMS_P2;Temp;Humidity;BMP_temperature;BMP_pressure;BME280_temperature;BME280_humidity;BME280_pressure;Samples;Min_cycle;Max_cycle;Signal;HPM_P1;HPM_P2
2021/10/09 00:01:06;;;;;;;48.40;27.20;;;;;;;12.38;100.00;102869.56;5095681;28;20026;-59
2021/10/09 00:03:31;;;;;;;53.40;29.27;;;;;;;12.39;100.00;102870.41;5099157;28;20314;-60
2021/10/09 00:05:59;;;;;;;47.03;27.27;;;;;;;12.39;100.00;102867.72;5095792;27;20111;-60
2021/10/09 00:08:25;;;;;;;54.73;28.47;;;;;;;12.33;100.00;102861.16;5093795;28;20131;-59
2021/10/09 00:10:51;;;;;;;47.83;28.07;;;;;;;12.33;100.00;102864.66;5092189;28;20397;-59
2021/10/09 00:13:16;;;;;;;56.90;29.40;;;;;;;12.31;100.00;102857.78;5093441;28;20477;-60
2021/10/09 00:15:42;;;;;;;48.43;27.07;;;;;;;12.30;100.00;102861.47;5093784;28;20101;-60
2021/10/09 00:18:08;;;;;;;51.83;29.98;;;;;;;12.23;100.00;102861.25;5093061;28;20043;-60
2021/10/09 00:20:33;;;;;;;53.57;27.63;;;;;;;12.19;100.00;102870.63;5093658;28;20462;-60
2021/10/09 00:22:59;;;;;;;57.65;29.45;;;;;;;12.16;100.00;102860.19;5101948;28;20298;-61
2021/10/09 00:25:25;;;;;;;52.38;28.35;;;;;;;12.11;100.00;102857.97;5107941;28;20039;-60
2021/10/09 00:27:51;;;;;;;54.65;29.35;;;;;;;12.11;100.00;102870.53;5110552;28;20383;-59
2021/10/09 00:30:17;;;;;;;;;;;;;;;12.07;100.00;102867.34;5115467;28;20031;-60
2021/10/09 00:32:42;;;;;;;55.30;29.33;;;;;;;12.07;100.00;102867.34;5112672;28;19937;-66
2021/10/09 00:35:09;;;;;;;;;;;;;;;12.04;100.00;102868.47;5114199;28;20480;-61
2021/10/09 00:37:34;;;;;;;57.63;28.33;;;;;;;11.79;100.00;102870.09;5115599;28;19904;-60
2021/10/09 00:40:01;;;;;;;57.25;30.38;;;;;;;11.91;100.00;102868.84;5112707;28;20040;-60
2021/10/09 00:42:26;;;;;;;59.72;31.38;;;;;;;11.85;100.00;102861.44;5095375;28;20534;-62
2021/10/09 00:44:52;;;;;;;56.67;29.80;;;;;;;11.90;100.00;102855.63;5093874;28;20032;-60
2021/10/09 00:47:22;;;;;;;56.80;30.10;;;;;;;11.88;100.00;102863.78;5094381;28;20044;-59
2021/10/09 00:49:48;;;;;;;60.15;30.88;;;;;;;11.82;100.00;102858.19;5094460;28;20084;-63
2021/10/09 00:52:13;;;;;;;53.63;28.87;;;;;;;11.80;100.00;102855.69;5093683;28;20028;-59
2021/10/09 00:54:44;;;;;;;55.28;31.40;;;;;;;11.79;100.00;102853.16;5095165;28;20046;-61
2021/10/09 00:57:13;;;;;;;59.28;31.60;;;;;;;11.80;100.00;102857.50;5106050;28;20032;-60
2021/10/09 00:59:40;;;;;;;66.13;31.52;;;;;;;11.79;100.00;102855.84;5110201;28;20460;-60
2021/10/09 01:02:06;;;;;;;57.17;32.40;;;;;;;11.72;100.00;102859.13;5109579;28;20059;-57
2021/10/09 01:04:33;;;;;;;55.75;30.73;;;;;;;11.71;100.00;102851.22;5098820;28;20277;-61
2021/10/09 01:07:00;;;;;;;63.10;31.40;;;;;;;11.70;100.00;102849.56;5100542;28;20047;-60
2021/10/09 01:09:26;;;;;;;59.08;31.40;;;;;;;11.66;100.00;102851.72;5100961;28;20376;-60
2021/10/09 01:11:53;;;;;;;;;;;;;;;11.64;100.00;102858.22;5100871;28;20519;-60
2021/10/09 01:14:21;;;;;;;62.42;31.33;;;;;;;11.65;100.00;102849.19;5084338;28;19908;-60
2021/10/09 01:16:46;;;;;;;60.67;32.93;;;;;;;11.62;100.00;102853.84;5101929;28;20745;-59
2021/10/09 01:19:12;;;;;;;66.20;32.80;;;;;;;11.58;100.00;102846.25;5094499;28;20020;-59
2021/10/09 01:21:47;;;;;;;60.80;33.55;;;;;;;11.55;100.00;102847.44;5086040;28;20442;-58
2021/10/09 01:24:13;;;;;;;59.20;31.38;;;;;;;11.55;100.00;102847.44;5097355;28;20081;-59
2021/10/09 01:26:39;;;;;;;60.15;32.13;;;;;;;11.57;100.00;102844.56;5091059;28;20545;-60
2021/10/09 01:29:10;;;;;;;62.00;33.40;;;;;;;11.50;100.00;102841.66;5091097;28;20048;-60
2021/10/09 01:31:37;;;;;;;62.00;32.08;;;;;;;11.53;100.00;102848.56;5091138;28;20086;-59
2021/10/09 01:34:04;;;;;;;62.92;31.85;;;;;;;11.45;100.00;102836.78;5091143;28;20127;-60
2021/10/09 01:36:36;;;;;;;63.60;33.47;;;;;;;11.48;100.00;102838.28;5074221;28;20044;-61
2021/10/09 01:39:05;;;;;;;59.67;32.55;;;;;;;11.46;100.00;102842.97;5092329;28;20476;-60
2021/10/09 01:41:45;;;;;;;66.80;32.30;;;;;;;11.47;100.00;102841.97;5075553;28;20123;-60
2021/10/09 01:44:11;;;;;;;64.10;33.63;;;;;;;11.45;100.00;102849.31;5091174;28;20389;-60
2021/10/09 01:46:37;;;;;;;62.17;32.72;;;;;;;11.37;100.00;102835.84;5092653;28;20477;-59
2021/10/09 01:49:07;;;;;;;66.57;32.37;;;;;;;11.36;100.00;102837.66;5077978;28;20055;-60
2021/10/09 01:51:34;;;;;;;65.03;32.78;;;;;;;11.31;100.00;102835.47;5078163;28;20311;-60
2021/10/09 01:54:00;;;;;;;;;;;;;;;11.34;100.00;102839.66;5095268;28;20036;-60
2021/10/09 01:56:26;;;;;;;59.60;31.70;;;;;;;11.30;100.00;102839.13;5099294;28;19919;-59
2021/10/09 01:58:53;;;;;;;59.67;32.80;;;;;;;11.29;100.00;102844.63;5107183;28;20024;-61
2021/10/09 02:01:28;;;;;;;71.28;36.03;;;;;;;11.24;100.00;102833.53;5099530;28;20131;-56
2021/10/09 02:03:53;;;;;;;67.25;36.35;;;;;;;11.22;100.00;102831.00;5094743;28;20552;-60
2021/10/09 02:06:19;;;;;;;71.60;35.08;;;;;;;11.24;100.00;102837.03;5094331;28;20043;-59
2021/10/09 02:08:47;;;;;;;66.10;34.33;;;;;;;11.16;100.00;102832.44;5094032;28;20086;-60
2021/10/09 02:11:17;;;;;;;69.68;36.50;;;;;;;11.18;100.00;102830.44;5094093;28;20047;-60
2021/10/09 02:19:01;;;;;;;72.95;36.20;;;;;;;11.07;100.00;102824.47;5093734;28;20040;-59
2021/10/09 02:26:58;;;;;;;70.70;37.25;;;;;;;11.05;100.00;102830.81;5095278;28;20127;-60
2021/10/09 02:29:25;;;;;;;68.95;37.50;;;;;;;11.02;100.00;102828.44;5093888;28;20461;-60
2021/10/09 02:31:55;;;;;;;70.75;38.70;;;;;;;11.00;100.00;102821.56;5076895;28;20058;-61
2021/10/09 02:34:22;;;;;;;68.72;37.25;;;;;;;10.98;100.00;102827.06;5093567;28;20052;-60
2021/10/09 02:36:47;;;;;;;70.85;35.63;;;;;;;10.95;100.00;102822.00;5093644;28;20036;-60
2021/10/09 02:39:13;;;;;;;77.53;39.83;;;;;;;10.92;100.00;102830.34;5093799;28;20040;-60
2021/10/09 02:41:39;;;;;;;75.97;36.65;;;;;;;10.89;100.00;102828.78;5093354;28;20036;-59
2021/10/09 02:44:05;;;;;;;69.35;38.13;;;;;;;10.88;100.00;102828.94;5093499;28;20043;-59
2021/10/09 02:46:33;;;;;;;68.63;37.67;;;;;;;10.83;100.00;102826.72;5093301;28;20489;-57
2021/10/09 02:48:59;;;;;;;71.20;38.05;;;;;;;10.83;100.00;102828.53;5093646;28;20435;-58
2021/10/09 02:51:25;;;;;;;79.47;38.15;;;;;;;10.79;100.00;102836.03;5093577;28;20031;-61
2021/10/09 02:53:52;;;;;;;;;;;;;;;10.74;100.00;102831.09;5093787;28;20036;-60
2021/10/09 02:56:18;;;;;;;71.10;36.47;;;;;;;10.75;100.00;102826.63;5093806;28;19989;-60
2021/10/09 02:58:43;;;;;;;74.82;39.33;;;;;;;10.71;100.00;102825.19;5093123;28;20043;-60
2021/10/09 03:01:12;;;;;;;72.82;37.42;;;;;;;10.69;100.00;102835.22;5093172;28;20032;-60
2021/10/09 03:03:38;;;;;;;80.17;38.53;;;;;;;10.69;100.00;102833.38;5094413;28;20066;-60
2021/10/09 03:06:03;;;;;;;79.23;39.53;;;;;;;10.66;100.00;102824.81;5094842;28;20024;-60
2021/10/09 03:08:32;;;;;;;81.28;40.45;;;;;;;10.63;100.00;102828.63;5093206;28;20119;-60
2021/10/09 03:10:57;;;;;;;79.68;41.63;;;;;;;10.60;100.00;102827.09;5092927;28;20127;-59
2021/10/09 03:13:23;;;;;;;86.93;42.60;;;;;;;10.63;100.00;102834.00;5092994;28;20460;-59
2021/10/09 03:15:50;;;;;;;88.25;43.22;;;;;;;10.58;100.00;102823.72;5095730;28;20276;-60
2021/10/09 03:18:15;;;;;;;85.70;44.00;;;;;;;10.54;100.00;102822.31;5099349;28;20088;-59
2021/10/09 03:20:41;;;;;;;88.17;40.47;;;;;;;10.55;100.00;102831.19;5106168;28;20115;-59
2021/10/09 03:23:10;;;;;;;85.13;41.83;;;;;;;10.54;100.00;102824.16;5098654;28;20292;-60
2021/10/09 03:25:36;;;;;;;83.15;42.92;;;;;;;10.51;100.00;102824.44;5104415;28;20596;-60
2021/10/09 03:28:01;;;;;;;84.07;44.77;;;;;;;10.51;100.00;102824.44;5097625;28;20492;-60
2021/10/09 03:30:27;;;;;;;81.57;41.30;;;;;;;10.47;100.00;102830.09;5104715;28;20040;-61
2021/10/09 03:32:53;;;;;;;83.78;41.90;;;;;;;10.50;100.00;102826.28;5114868;28;20372;-61
2021/10/09 03:35:18;;;;;;;89.85;42.20;;;;;;;10.44;100.00;102822.34;5096422;28;20480;-60
2021/10/09 03:37:47;;;;;;;90.82;44.03;;;;;;;10.40;100.00;102826.31;5098153;28;20036;-61
2021/10/09 03:40:17;;;;;;;82.25;39.90;;;;;;;10.42;100.00;102824.34;5093543;28;20040;-62
2021/10/09 03:53:04;;;;;;;97.15;46.72;;;;;;;10.29;100.00;102824.63;5073607;28;20054;-60
2021/10/09 03:55:30;;;;;;;89.78;43.08;;;;;;;10.32;100.00;102826.16;5104679;28;20039;-60
2021/10/09 03:57:56;;;;;;;87.55;44.00;;;;;;;10.24;100.00;102826.03;5112601;28;20042;-60
2021/10/09 04:00:22;;;;;;;86.97;44.60;;;;;;;10.25;100.00;102835.75;5113997;28;20035;-60
2021/10/09 04:02:58;;;;;;;90.60;44.65;;;;;;;10.19;100.00;102829.13;5096648;28;20276;-60
2021/10/09 04:05:23;;;;;;;90.13;44.95;;;;;;;10.19;100.00;102830.00;5112629;28;20499;-61
2021/10/09 04:07:51;;;;;;;88.28;44.45;;;;;;;10.18;100.00;102830.97;5112255;28;20031;-62
2021/10/09 04:10:18;;;;;;;85.85;42.85;;;;;;;10.17;100.00;102831.13;5113539;28;20096;-60
2021/10/09 04:12:45;;;;;;;93.75;44.85;;;;;;;10.14;100.00;102836.75;5112787;28;20081;-59
2021/10/09 04:15:12;;;;;;;93.43;46.15;;;;;;;10.08;100.00;102831.97;5112421;28;20039;-60
2021/10/09 04:17:38;;;;;;;92.40;42.77;;;;;;;10.07;100.00;102835.66;5113665;28;20541;-59
2021/10/09 04:20:06;;;;;;;91.22;43.38;;;;;;;10.08;100.00;102831.97;5111920;28;20019;-58
2021/10/09 04:22:34;;;;;;;90.25;42.45;;;;;;;10.03;100.00;102835.06;5112424;28;20035;-60
2021/10/09 04:24:59;;;;;;;84.90;42.25;;;;;;;10.13;100.00;102827.88;5108178;28;20372;-59
2021/10/09 04:27:25;;;;;;;91.13;43.92;;;;;;;9.98;100.00;102834.66;5109511;28;20157;-60
2021/10/09 04:29:51;;;;;;;85.10;41.88;;;;;;;9.94;100.00;102830.59;5102927;28;20035;-61
2021/10/09 04:32:16;;;;;;;96.67;43.60;;;;;;;9.95;100.00;102833.13;5113551;28;20538;-59
2021/10/09 04:34:42;;;;;;;91.00;42.40;;;;;;;9.94;100.00;102835.94;5113947;28;20047;-60
2021/10/09 04:37:08;;;;;;;84.65;41.15;;;;;;;9.90;100.00;102825.50;5095070;28;20740;-59
2021/10/09 04:39:33;;;;;;;91.43;43.20;;;;;;;9.89;100.00;102831.84;5112441;28;20038;-59
2021/10/09 04:42:02;;;;;;;93.32;42.88;;;;;;;9.83;100.00;102828.91;5078683;28;20369;-59
2021/10/09 04:44:28;;;;;;;91.38;44.25;;;;;;;9.82;100.00;102829.91;5112217;28;20032;-60
2021/10/09 04:46:53;;;;;;;98.15;44.42;;;;;;;9.77;100.00;102824.97;5112136;28;20042;-59
2021/10/09 04:49:20;;;;;;;90.32;43.53;;;;;;;9.78;100.00;102836.50;5111991;28;20035;-60
2021/10/09 04:51:48;;;;;;;91.57;45.17;;;;;;;9.73;100.00;102828.91;5095423;28;20075;-58
2021/10/09 04:54:14;;;;;;;93.20;44.05;;;;;;;9.74;100.00;102827.94;5095627;28;20127;-60
2021/10/09 04:56:40;;;;;;;89.18;43.63;;;;;;;9.73;100.00;102827.06;5112048;28;20058;-60
2021/10/09 04:59:06;;;;;;;93.70;42.50;;;;;;;9.66;100.00;102830.44;5111772;28;20074;-59
2021/10/09 05:01:33;;;;;;;89.47;43.95;;;;;;;9.60;100.00;102827.34;5113034;28;20043;-59
2021/10/09 05:03:59;;;;;;;99.00;44.22;;;;;;;9.64;100.00;102824.41;5111601;28;20532;-60
2021/10/09 05:06:25;;;;;;;95.55;43.90;;;;;;;9.62;100.00;102832.56;5095386;28;20409;-59
2021/10/09 05:08:51;;;;;;;89.13;43.13;;;;;;;9.59;100.00;102825.66;5111877;28;20039;-59
2021/10/09 05:11:19;;;;;;;89.30;42.30;;;;;;;9.53;100.00;102828.91;5111969;28;20035;-59
2021/10/09 05:13:46;;;;;;;89.53;43.85;;;;;;;9.54;100.00;102835.06;5111667;28;20044;-60
2021/10/09 05:16:13;;;;;;;97.03;46.60;;;;;;;9.55;100.00;102832.28;5111460;28;20061;-60
2021/10/09 05:18:40;;;;;;;95.70;44.63;;;;;;;9.53;100.00;102836.06;5111688;28;20020;-60
2021/10/09 05:21:07;;;;;;;;;;;;;;;9.51;100.00;102836.22;5113018;28;20126;-60
2021/10/09 05:23:33;;;;;;;100.55;42.17;;;;;;;9.46;100.00;102836.63;5116697;28;19915;-59
2021/10/09 05:25:58;;;;;;;98.35;45.38;;;;;;;9.39;100.00;102827.50;5116775;28;20464;-60
2021/10/09 05:28:51;;;;;;;97.32;43.80;;;;;;;9.37;100.00;102840.13;5115677;28;20043;-60
2021/10/09 05:31:25;;;;;;;103.03;46.22;;;;;;;9.41;100.00;102841.53;5115610;28;20473;-60
2021/10/09 05:33:54;;;;;;;106.53;47.17;;;;;;;9.38;100.00;102836.47;5115178;28;20129;-58
2021/10/09 05:36:21;;;;;;;105.32;48.45;;;;;;;9.40;100.00;102844.34;5115274;28;20154;-59
2021/10/09 05:38:48;;;;;;;105.07;46.97;;;;;;;9.39;100.00;102848.84;5115490;28;20047;-60
2021/10/09 05:41:14;;;;;;;;;;;;;;;9.41;100.00;102851.38;5115376;28;20035;-60
2021/10/09 05:43:46;;;;;;;105.18;45.53;;;;;;;9.37;100.00;102849.97;5115092;28;20293;-59
2021/10/09 05:46:12;;;;;;;;;;;;;;;9.35;100.00;102849.25;5115491;28;20047;-59
2021/10/09 05:48:39;;;;;;;107.53;47.07;;;;;;;9.36;100.00;102853.63;5115330;28;20405;-59
2021/10/09 06:42:16;;;;;;;108.43;46.97;;;;;;;9.24;100.00;102871.56;5095127;28;20036;-60
2021/10/09 06:59:41;;;;;;;102.55;44.85;;;;;;;9.57;100.00;102896.22;5093609;28;20048;-59
2021/10/09 07:02:07;;;;;;;107.95;48.53;;;;;;;9.67;100.00;102896.25;5092944;28;20507;-60
2021/10/09 07:04:33;;;;;;;112.63;50.10;;;;;;;9.72;100.00;102897.53;5093497;28;20033;-61
2021/10/09 07:07:03;;;;;;;97.88;47.08;;;;;;;9.83;100.00;102904.56;5092820;28;20028;-57
2021/10/09 07:09:34;;;;;;;94.05;45.80;;;;;;;9.88;100.00;102902.31;5093049;28;20037;-60
2021/10/09 07:12:03;;;;;;;95.93;45.53;;;;;;;9.95;100.00;102896.44;5093164;28;20090;-61
2021/10/09 07:14:32;;;;;;;98.78;46.72;;;;;;;9.99;100.00;102897.84;5093197;28;20051;-60
2021/10/09 07:16:58;;;;;;;103.55;46.88;;;;;;;10.06;100.00;102906.97;5076113;28;20044;-59
2021/10/09 07:19:24;;;;;;;91.85;44.58;;;;;;;10.10;100.00;102908.38;5092689;28;20432;-60
2021/10/09 07:21:49;;;;;;;86.97;43.00;;;;;;;10.14;100.00;102907.09;5093984;28;20040;-60
2021/10/09 07:24:15;;;;;;;95.37;44.87;;;;;;;10.22;100.00;102910.91;5105274;27;20016;-60
2021/10/09 07:26:41;;;;;;;95.95;44.70;;;;;;;10.28;100.00;102904.97;5120437;27;20081;-60
2021/10/09 07:29:06;;;;;;;89.70;42.10;;;;;;;10.35;100.00;102906.09;5119377;27;20031;-60
2021/10/09 07:31:32;;;;;;;81.15;40.85;;;;;;;10.41;100.00;102904.72;5122117;27;20129;-62
2021/10/09 07:33:57;;;;;;;87.10;41.30;;;;;;;10.52;100.00;102909.91;5123867;27;20092;-59
2021/10/09 07:36:23;;;;;;;87.90;41.70;;;;;;;10.68;100.00;102909.31;5121889;27;20038;-59
2021/10/09 07:38:48;;;;;;;93.93;45.13;;;;;;;10.76;100.00;102912.09;5112550;27;20286;-61
2021/10/09 07:41:14;;;;;;;87.93;43.50;;;;;;;10.84;100.00;102906.00;5103878;28;20031;-60
2021/10/09 07:43:40;;;;;;;83.70;41.42;;;;;;;10.89;100.00;102911.75;5100862;28;20466;-59
2021/10/09 07:46:06;;;;;;;92.68;44.00;;;;;;;11.04;100.00;102913.97;5101358;27;20044;-61
2021/10/09 07:48:31;;;;;;;94.83;45.77;;;;;;;11.23;100.00;102917.56;5115858;27;20399;-60
2021/10/09 07:50:57;;;;;;;78.63;41.03;;;;;;;11.33;100.00;102916.53;5122750;27;20279;-61
2021/10/09 07:53:23;;;;;;;87.88;41.92;;;;;;;11.39;100.00;102919.59;5122531;27;20099;-59
2021/10/09 07:55:49;;;;;;;;;;;;;;;11.52;100.00;102921.91;5109465;27;20031;-60
2021/10/09 07:58:15;;;;;;;80.20;39.30;;;;;;;11.65;100.00;102922.41;5123245;27;19907;-59
2021/10/09 08:00:40;;;;;;;72.75;35.75;;;;;;;11.77;100.00;102925.69;5103060;27;20075;-59
2021/10/09 08:03:06;;;;;;;77.25;39.38;;;;;;;11.94;100.00;102920.47;5121550;27;20387;-62
2021/10/09 08:05:34;;;;;;;88.87;45.10;;;;;;;11.99;100.00;102919.03;5132187;27;20079;-60
2021/10/09 08:08:02;;;;;;;81.07;42.43;;;;;;;12.19;100.00;102935.00;5134884;27;20239;-60
2021/10/09 08:10:28;;;;;;;70.27;36.57;;;;;;;12.18;100.00;102926.09;5122199;27;20256;-61
2021/10/09 08:12:54;;;;;;;73.67;39.60;;;;;;;12.30;100.00;102931.22;5106641;28;20737;-60
2021/10/09 08:15:20;;;;;;;61.00;35.00;;;;;;;12.34;100.00;102927.22;5128386;27;20279;-60
2021/10/09 08:17:45;;;;;;;63.65;34.70;;;;;;;12.40;100.00;102929.28;5133814;27;20720;-59
2021/10/09 08:20:11;;;;;;;64.10;34.53;;;;;;;12.57;100.00;102932.09;5134072;27;20425;-59
2021/10/09 08:22:41;;;;;;;61.67;33.45;;;;;;;12.75;100.00;102927.50;5134023;27;20270;-61
2021/10/09 08:28:15;;;;;;;59.50;32.53;;;;;;;13.39;100.00;102925.47;5133390;27;20267;-58
2021/10/09 08:36:30;;;;;;;51.23;30.63;;;;;;;14.56;100.00;102932.63;5060873;27;20304;-60
2021/10/09 08:38:56;;;;;;;52.38;29.40;;;;;;;14.94;100.00;102927.50;5132820;28;20367;-61
2021/10/09 08:41:21;;;;;;;61.83;30.57;;;;;;;15.39;100.00;102927.84;5134128;27;20109;-60
2021/10/09 08:43:50;;;;;;;46.05;26.60;;;;;;;15.75;100.00;102932.66;5134224;27;20813;-61
2021/10/09 08:46:18;;;;;;;50.90;28.50;;;;;;;16.37;100.00;102935.41;5133372;27;20103;-61
2021/10/09 08:48:48;;;;;;;48.27;26.90;;;;;;;16.65;100.00;102933.97;5132518;28;20275;-60
2021/10/09 08:51:21;;;;;;;49.80;28.67;;;;;;;16.96;100.00;102928.38;5133926;27;20075;-60
2021/10/09 08:53:47;;;;;;;52.07;28.93;;;;;;;17.58;100.00;102926.25;5134432;28;20484;-61
2021/10/09 08:56:32;;;;;;;49.58;29.00;;;;;;;18.96;100.00;102929.66;5136567;27;20031;-62
2021/10/09 08:59:30;;;;;;;51.03;28.93;;;;;;;19.37;100.00;102937.97;5138570;27;20035;-61
2021/10/09 09:02:23;;;;;;;49.23;26.47;;;;;;;19.53;100.00;102932.19;5138668;27;20028;-61
2021/10/09 09:40:12;;;;;;;43.43;24.43;;;;;;;17.87;100.00;102940.69;5137745;27;20038;-60
2021/10/09 09:42:46;;;;;;;43.50;25.50;;;;;;;18.24;100.00;102935.22;5137061;27;20114;-60
2021/10/09 09:45:27;;;;;;;45.13;23.93;;;;;;;19.81;100.00;102938.50;5136321;27;20054;-60
2021/10/09 09:47:59;;;;;;;40.97;23.77;;;;;;;20.94;100.00;102942.22;5136740;27;20027;-60
2021/10/09 09:50:26;;;;;;;37.93;23.70;;;;;;;22.16;100.00;102942.38;5136313;27;20027;-60
2021/10/09 09:52:53;;;;;;;38.57;23.60;;;;;;;22.49;95.71;102933.94;5137374;27;20019;-60
2021/10/09 09:55:19;;;;;;;37.53;22.30;;;;;;;22.49;100.00;102925.75;5136375;27;20074;-61
2021/10/09 09:57:47;;;;;;;37.00;23.17;;;;;;;22.18;100.00;102927.50;5137777;27;20043;-59
2021/10/09 10:00:15;;;;;;;37.80;23.87;;;;;;;22.55;97.67;102934.06;5137755;27;20078;-60
2021/10/09 10:02:48;;;;;;;33.10;21.70;;;;;;;23.77;83.88;102935.06;5136223;27;20019;-61
2021/10/09 10:05:14;;;;;;;33.23;21.97;;;;;;;24.34;71.72;102930.16;5136094;27;20058;-60
2021/10/09 10:07:40;;;;;;;;;;;;;;;24.63;65.34;102935.69;5136452;27;20027;-61
2021/10/09 10:10:06;;;;;;;33.20;20.17;;;;;;;25.07;65.66;102935.28;5137061;27;19911;-61
2021/10/09 10:12:32;;;;;;;33.10;21.70;;;;;;;24.57;68.71;102934.78;5136517;27;20031;-60
2021/10/09 10:14:59;;;;;;;34.33;20.33;;;;;;;25.47;61.71;102922.63;5137374;27;20080;-60
2021/10/09 10:17:48;;;;;;;31.45;20.95;;;;;;;24.75;67.96;102932.97;5135198;27;20460;-61
2021/10/09 10:20:18;;;;;;;33.70;22.47;;;;;;;24.82;66.22;102938.31;5135744;27;20031;-61
2021/10/09 10:22:44;;;;;;;33.13;23.02;;;;;;;25.32;63.08;102940.41;5137132;27;20490;-60
2021/10/09 10:25:15;;;;;;;30.02;20.80;;;;;;;26.05;56.09;102938.94;5128353;27;20019;-60
2021/10/09 10:27:41;;;;;;;28.17;18.63;;;;;;;25.55;60.65;102933.19;5131296;27;20035;-61
2021/10/09 10:30:16;;;;;;;31.77;22.42;;;;;;;25.87;59.61;102929.91;5096953;28;20028;-60
2021/10/09 10:32:53;;;;;;;29.90;20.73;;;;;;;26.20;54.03;102939.22;5132278;27;20035;-60
2021/10/09 10:35:34;;;;;;;26.58;18.67;;;;;;;26.35;55.04;102943.28;5135584;27;20050;-61
2021/10/09 10:38:38;;;;;;;33.22;23.75;;;;;;;26.61;51.08;102936.22;5133010;27;20035;-60
2021/10/09 10:41:04;;;;;;;36.70;21.17;;;;;;;27.18;48.71;102941.56;5124129;27;20150;-60
2021/10/09 10:43:34;;;;;;;28.77;19.00;;;;;;;27.27;46.86;102942.78;5125996;27;20045;-59
2021/10/09 10:46:21;;;;;;;30.75;19.75;;;;;;;27.83;44.73;102938.13;5125741;27;20063;-62
2021/10/09 10:48:58;;;;;;;32.40;20.65;;;;;;;28.08;44.29;102940.22;5129439;27;20484;-60
2021/10/09 10:51:50;;;;;;;29.30;19.83;;;;;;;28.54;43.92;102947.09;5134873;27;20101;-61
2021/10/09 10:57:02;;;;;;;28.65;19.02;;;;;;;29.04;40.21;102939.38;5124816;27;20031;-61
2021/10/09 10:59:30;;;;;;;32.58;19.02;;;;;;;29.57;39.69;102941.97;5122397;27;20055;-61
2021/10/09 11:02:09;;;;;;;29.33;19.42;;;;;;;29.56;39.39;102936.72;5128093;27;20094;-62
2021/10/09 11:04:40;;;;;;;25.73;18.98;;;;;;;30.37;36.47;102933.34;5137357;27;20140;-60
2021/10/09 11:07:06;;;;;;;27.70;18.77;;;;;;;29.95;38.51;102932.56;5135713;27;20468;-61
2021/10/09 11:09:33;;;;;;;26.40;18.23;;;;;;;29.95;39.12;102927.03;5134178;27;20038;-60
2021/10/09 11:11:59;;;;;;;27.48;18.90;;;;;;;30.42;36.45;102930.56;5134267;27;20038;-60
2021/10/09 11:14:26;;;;;;;30.17;18.90;;;;;;;30.21;36.52;102930.63;5133965;27;20466;-60
2021/10/09 11:17:02;;;;;;;22.23;15.18;;;;;;;30.64;38.07;102924.69;5134334;27;20031;-61
2021/10/09 11:19:45;;;;;;;25.60;18.25;;;;;;;30.62;35.60;102932.44;5116664;27;20035;-60
2021/10/09 11:22:15;;;;;;;28.65;17.08;;;;;;;31.30;34.13;102930.16;5117298;27;20464;-61
2021/10/09 11:24:46;;;;;;;29.80;19.40;;;;;;;31.25;36.01;102930.19;5122837;27;20110;-62
2021/10/09 11:27:13;;;;;;;26.45;16.92;;;;;;;30.78;35.62;102919.38;5112786;28;20088;-61
2021/10/09 11:29:40;;;;;;;29.35;16.80;;;;;;;30.86;35.62;102921.56;5113878;28;20042;-60
2021/10/09 11:32:10;;;;;;;27.50;17.35;;;;;;;31.13;34.07;102924.97;5113171;28;20071;-61
2021/10/09 11:34:53;;;;;;;22.60;15.82;;;;;;;32.07;33.14;102917.63;5114193;28;20055;-60
2021/10/09 11:37:19;;;;;;;29.10;19.58;;;;;;;31.85;32.49;102918.97;5113582;28;20041;-59
2021/10/09 11:39:53;;;;;;;29.60;17.85;;;;;;;32.27;31.38;102915.72;5108243;28;20046;-61
2021/10/09 11:42:23;;;;;;;24.67;17.95;;;;;;;32.23;32.67;102917.44;5094050;28;20115;-60
2021/10/09 11:45:05;;;;;;;31.85;17.75;;;;;;;32.41;31.38;102913.94;5093944;28;20035;-61
2021/10/09 11:56:07;;;;;;;31.23;18.48;;;;;;;33.40;29.68;102909.78;5093854;28;20265;-60
2021/10/09 11:58:54;;;;;;;27.58;18.02;;;;;;;33.45;30.58;102910.56;5093588;28;20035;-60
2021/10/09 12:01:33;;;;;;;31.60;20.92;;;;;;;33.57;29.42;102904.53;5094159;28;20473;-61
2021/10/09 12:04:21;;;;;;;28.48;17.27;;;;;;;33.52;29.54;102912.09;5094522;28;20039;-61
2021/10/09 12:06:54;;;;;;;29.15;18.65;;;;;;;33.61;28.88;102907.53;5094447;28;20094;-60
2021/10/09 12:09:45;;;;;;;24.00;17.35;;;;;;;33.73;28.21;102905.06;5099078;27;20127;-60
2021/10/09 12:12:22;;;;;;;24.42;16.92;;;;;;;33.79;28.48;102904.97;5114819;28;20122;-60
2021/10/09 12:14:50;;;;;;;28.10;17.27;;;;;;;33.77;28.69;102913.59;5115576;28;20051;-60
2021/10/09 12:17:16;;;;;;;29.15;17.15;;;;;;;33.81;28.58;102905.50;5117431;28;20368;-60
2021/10/09 12:19:42;;;;;;;26.95;17.90;;;;;;;34.00;28.16;102894.34;5117950;28;20046;-60
2021/10/09 12:22:12;;;;;;;21.48;16.15;;;;;;;33.92;28.54;102900.59;5118166;28;20044;-59
2021/10/09 12:24:50;;;;;;;25.90;17.75;;;;;;;33.98;28.26;102902.16;5122552;27;20046;-61
2021/10/09 12:27:26;;;;;;;25.77;16.77;;;;;;;33.98;28.31;102904.94;5123499;28;20042;-60
2021/10/09 12:30:03;;;;;;;27.52;17.92;;;;;;;33.99;28.10;102901.03;5119858;28;20133;-61
2021/10/09 12:32:40;;;;;;;31.17;16.63;;;;;;;34.07;28.35;102877.28;5124295;28;20034;-60
2021/10/09 12:35:20;;;;;;;31.90;16.00;;;;;;;34.45;27.93;102885.34;5125261;28;20047;-61
2021/10/09 12:38:09;;;;;;;30.42;16.13;;;;;;;34.61;27.51;102888.66;5117638;28;20032;-60
2021/10/09 12:40:48;;;;;;;25.95;17.25;;;;;;;34.95;27.00;102884.53;5100299;28;20093;-60
2021/10/09 12:43:19;;;;;;;27.48;19.05;;;;;;;34.77;27.19;102878.03;5116171;28;20043;-60
2021/10/09 12:45:45;;;;;;;24.73;16.63;;;;;;;34.80;26.84;102877.38;5114494;28;20063;-60
2021/10/09 12:48:11;;;;;;;28.08;16.70;;;;;;;34.97;26.61;102873.94;5120283;28;20110;-61
2021/10/09 12:50:39;;;;;;;27.88;18.08;;;;;;;34.99;27.45;102873.63;5137950;28;20087;-60
2021/10/09 12:53:05;;;;;;;26.02;17.50;;;;;;;34.98;26.94;102875.56;5133772;27;20049;-59
2021/10/09 12:55:33;;;;;;;25.52;17.48;;;;;;;34.92;26.64;102868.50;5128990;28;20031;-59
2021/10/09 12:58:01;;;;;;;25.52;17.35;;;;;;;35.38;26.20;102869.31;5126785;28;20066;-60
2021/10/09 13:00:29;;;;;;;29.48;17.42;;;;;;;35.41;26.41;102865.94;5125626;28;20032;-63
2021/10/09 13:02:57;;;;;;;22.98;16.27;;;;;;;35.60;26.01;102867.66;5122892;28;20349;-61
2021/10/09 13:05:27;;;;;;;33.35;18.63;;;;;;;35.43;25.71;102869.19;5122841;27;20023;-61
2021/10/09 13:07:55;;;;;;;27.27;16.65;;;;;;;34.86;26.60;102859.44;5131167;28;20175;-61
2021/10/09 13:10:22;;;;;;;24.17;16.23;;;;;;;35.37;25.42;102861.31;5114315;28;20042;-61
2021/10/09 13:12:48;;;;;;;26.20;15.27;;;;;;;35.68;25.66;102866.06;5112650;28;20027;-60
2021/10/09 13:15:17;;;;;;;29.35;16.23;;;;;;;35.70;25.30;102870.19;5103034;28;20035;-59
2021/10/09 13:17:47;;;;;;;28.77;16.60;;;;;;;35.78;24.65;102864.97;5112380;28;20038;-60
2021/10/09 13:20:14;;;;;;;41.03;15.73;;;;;;;35.73;24.61;102858.41;5111981;28;20042;-60
2021/10/09 13:22:40;;;;;;;21.02;15.25;;;;;;;35.55;25.28;102857.50;5110936;28;20487;-61
2021/10/09 13:25:06;;;;;;;25.90;16.20;;;;;;;35.78;24.61;102851.06;5111943;28;20040;-60
2021/10/09 13:27:31;;;;;;;20.85;15.57;;;;;;;35.78;25.38;102864.97;5110818;28;20116;-60
2021/10/09 13:29:58;;;;;;;30.10;15.95;;;;;;;36.18;24.47;102856.63;5111115;28;20092;-60
2021/10/09 13:32:24;;;;;;;24.15;15.57;;;;;;;36.36;24.31;102857.47;5112825;28;20028;-60
2021/10/09 13:34:50;;;;;;;28.58;16.25;;;;;;;36.47;24.39;102848.78;5112003;28;20038;-60
2021/10/09 13:37:20;;;;;;;29.42;16.70;;;;;;;36.26;24.74;102846.63;5113996;28;20123;-60